Cranberry, North Carolina
Current Conditions -  °F | °C
As of 12:15 PM on Wednesday 26 Nov 2014 (Local Time) from KTNB Reporting Station
Overcast Overcast  
Wind Chill: 27°   Ceiling: 400
Heat Index: 36°   Visibility: 10mi
Dew Point: 36°   Wind: 14mph
Humidity: 99%   Direction: 270°W
Pressure: 29.96"   Gusts: 17mph
Location:  36.1731°N, 81.9572°W
Report Text: KTNB 261715Z AUTO 27012G15KT 10SM OVC004 02/02 A2996 RMK AO2 T00220020
Loading
Personal Weather Stations






























Interactive Weather Map New forecast layout! Learn more

10-Day Weather Forecast

Advertisements
Track Severe Weather on mobile